createdAt,value
2018-01-06T00:02:26.091Z,3.40
2018-01-06T00:04:54.435Z,3.50
2018-01-06T00:07:22.766Z,2.27
2018-01-06T00:09:51.024Z,2.97
2018-01-06T00:12:19.350Z,3.03
2018-01-06T00:14:47.699Z,3.57
2018-01-06T00:17:16.825Z,2.90
2018-01-06T00:19:45.123Z,2.80
2018-01-06T00:22:13.454Z,3.07
2018-01-06T00:24:41.812Z,3.77
2018-01-06T00:27:10.148Z,3.00
2018-01-06T00:29:39.310Z,3.37
2018-01-06T00:32:08.270Z,2.60
2018-01-06T00:34:36.607Z,2.17
2018-01-06T00:37:04.983Z,2.50
2018-01-06T00:39:34.075Z,3.50
2018-01-06T00:42:02.454Z,2.40
2018-01-06T00:44:30.812Z,2.97
2018-01-06T00:46:59.131Z,3.00
2018-01-06T00:49:28.522Z,3.20
2018-01-06T00:51:56.834Z,3.00
2018-01-06T00:54:27.311Z,2.43
2018-01-06T00:56:55.714Z,3.80
2018-01-06T00:59:24.796Z,2.97
2018-01-06T01:01:54.831Z,3.23
2018-01-06T01:04:23.218Z,4.40
2018-01-06T01:06:51.585Z,3.23
2018-01-06T01:09:19.900Z,3.60
2018-01-06T01:11:48.253Z,3.87
2018-01-06T01:14:16.592Z,3.40
2018-01-06T01:16:44.965Z,2.87
2018-01-06T01:19:16.685Z,3.23
2018-01-06T01:21:46.097Z,3.07
2018-01-06T01:24:14.446Z,3.60
2018-01-06T01:26:43.572Z,4.10
2018-01-06T01:29:12.016Z,3.57
2018-01-06T01:31:41.206Z,3.07
2018-01-06T01:34:10.331Z,3.30
2018-01-06T01:36:38.703Z,3.47
2018-01-06T01:39:07.107Z,3.90
2018-01-06T01:41:35.595Z,2.70
2018-01-06T01:44:04.842Z,3.07
2018-01-06T01:46:35.793Z,2.90
2018-01-06T01:49:04.144Z,7.67
2018-01-06T01:51:32.577Z,2.93
2018-01-06T01:54:00.972Z,3.63
2018-01-06T01:56:29.398Z,3.03
2018-01-06T01:58:57.842Z,2.73
2018-01-06T02:01:26.364Z,3.53
2018-01-06T02:03:54.806Z,3.60
2018-01-06T02:06:24.096Z,4.53
2018-01-06T02:08:52.531Z,3.67
2018-01-06T02:11:21.011Z,4.23
2018-01-06T02:13:49.422Z,3.57
2018-01-06T02:16:17.747Z,3.27
2018-01-06T02:18:46.847Z,3.13
2018-01-06T02:21:16.087Z,3.07
2018-01-06T02:23:44.380Z,2.63
2018-01-06T02:26:12.890Z,3.00
2018-01-06T02:28:41.303Z,3.27
2018-01-06T02:31:09.686Z,3.23
2018-01-06T02:33:38.000Z,3.20
2018-01-06T02:36:06.414Z,3.03
2018-01-06T02:38:35.628Z,3.13
2018-01-06T02:41:04.884Z,3.37
2018-01-06T02:43:33.364Z,4.13
2018-01-06T02:46:01.859Z,3.47
2018-01-06T02:48:30.273Z,3.40
2018-01-06T02:50:58.686Z,3.90
2018-01-06T02:53:26.970Z,2.90
2018-01-06T02:55:55.514Z,3.80
2018-01-06T02:58:23.949Z,4.37
2018-01-06T03:00:52.304Z,4.10
2018-01-06T03:03:21.604Z,3.60
2018-01-06T03:05:50.733Z,4.37
2018-01-06T03:08:19.326Z,3.97
2018-01-06T03:10:47.643Z,3.87
2018-01-06T03:13:16.081Z,5.60
2018-01-06T03:15:44.518Z,3.40
2018-01-06T03:18:13.802Z,4.33
2018-01-06T03:20:43.002Z,3.30
2018-01-06T03:23:11.380Z,3.90
2018-01-06T03:25:39.863Z,4.10
2018-01-06T03:28:08.569Z,3.80
2018-01-06T03:30:36.922Z,3.00
2018-01-06T03:33:05.360Z,3.93
2018-01-06T03:35:44.627Z,4.30
2018-01-06T03:38:12.946Z,3.87
2018-01-06T03:40:41.399Z,2.93
2018-01-06T03:43:09.683Z,3.13
2018-01-06T03:45:38.772Z,3.77
2018-01-06T03:48:07.123Z,4.20
2018-01-06T03:50:35.538Z,3.20
2018-01-06T03:53:03.837Z,3.70
2018-01-06T03:55:33.014Z,3.50
2018-01-06T03:58:01.268Z,2.87
2018-01-06T04:00:29.573Z,2.93
2018-01-06T04:02:58.004Z,3.77
2018-01-06T04:05:27.073Z,3.87
2018-01-06T04:07:56.159Z,3.40
2018-01-06T04:10:24.516Z,4.33
2018-01-06T04:12:52.854Z,3.90
2018-01-06T04:15:21.183Z,4.17
2018-01-06T04:17:50.234Z,4.50
2018-01-06T04:20:18.563Z,4.70
2018-01-06T04:22:46.912Z,4.13
2018-01-06T04:25:15.268Z,4.10
2018-01-06T04:27:43.545Z,3.40
2018-01-06T04:30:11.854Z,3.00
2018-01-06T04:32:41.011Z,4.00
2018-01-06T04:35:12.156Z,3.80
2018-01-06T04:37:40.629Z,3.23
2018-01-06T04:40:11.230Z,3.60
2018-01-06T04:42:39.543Z,3.27
2018-01-06T04:45:08.080Z,3.60
2018-01-06T04:47:36.488Z,2.50
2018-01-06T04:50:04.851Z,3.63
2018-01-06T04:52:34.160Z,2.93
2018-01-06T04:55:02.583Z,2.83
2018-01-06T04:57:30.898Z,3.20
2018-01-06T04:59:59.223Z,2.43
2018-01-06T05:02:27.697Z,3.60
2018-01-06T05:04:57.123Z,3.83
2018-01-06T05:07:25.662Z,2.80
2018-01-06T05:09:53.946Z,3.03
2018-01-06T05:12:23.246Z,2.73
2018-01-06T05:14:51.722Z,3.73
2018-01-06T05:17:23.468Z,2.40
2018-01-06T05:19:52.614Z,3.60
2018-01-06T05:22:20.966Z,3.40
2018-01-06T05:24:49.246Z,3.57
2018-01-06T05:27:17.703Z,2.80
2018-01-06T05:29:46.006Z,4.50
2018-01-06T05:32:15.354Z,3.97
2018-01-06T05:34:43.780Z,3.97
2018-01-06T05:37:12.305Z,3.80
2018-01-06T05:39:41.386Z,4.60
2018-01-06T05:42:11.449Z,4.33
2018-01-06T05:44:40.133Z,3.50
2018-01-06T05:47:08.500Z,3.20
2018-01-06T05:49:36.900Z,2.67
2018-01-06T05:52:05.245Z,2.90
2018-01-06T05:54:34.339Z,3.50
2018-01-06T05:57:02.680Z,3.47
2018-01-06T05:59:31.852Z,3.60
2018-01-06T06:02:00.267Z,4.20
2018-01-06T06:04:28.560Z,4.10
2018-01-06T06:06:56.904Z,3.40
2018-01-06T06:09:25.627Z,3.40
2018-01-06T06:11:54.974Z,3.23
2018-01-06T06:14:23.323Z,3.80
2018-01-06T06:16:51.666Z,3.63
2018-01-06T06:19:20.526Z,3.50
2018-01-06T06:21:48.903Z,3.53
2018-01-06T06:24:18.060Z,3.30
2018-01-06T06:26:46.587Z,3.80
2018-01-06T06:29:14.925Z,3.37
2018-01-06T06:31:43.380Z,3.10
2018-01-06T06:34:12.679Z,4.10
2018-01-06T06:36:41.113Z,4.20
2018-01-06T06:39:10.984Z,4.60
2018-01-06T06:41:39.292Z,3.83
2018-01-06T06:44:07.699Z,3.40
2018-01-06T06:46:36.038Z,2.87
2018-01-06T06:49:05.210Z,4.07
2018-01-06T06:51:34.295Z,3.30
2018-01-06T06:54:02.744Z,4.10
2018-01-06T06:56:31.174Z,3.57
2018-01-06T06:59:00.234Z,4.83
2018-01-06T07:01:29.481Z,4.03
2018-01-06T07:03:57.907Z,3.63
2018-01-06T07:09:23.228Z,3.17
2018-01-06T07:11:51.588Z,3.83
2018-01-06T07:14:19.945Z,5.30
2018-01-06T07:16:50.981Z,4.57
2018-01-06T07:19:19.248Z,6.20
2018-01-06T07:21:47.570Z,5.93
2018-01-06T07:24:16.785Z,7.03
2018-01-06T07:26:45.114Z,8.20
2018-01-06T07:29:13.370Z,7.83
2018-01-06T07:31:41.668Z,7.43
2018-01-06T07:34:10.786Z,6.97
2018-01-06T07:36:39.941Z,7.17
2018-01-06T07:39:08.272Z,7.27
2018-01-06T07:41:37.338Z,6.83
2018-01-06T07:44:05.667Z,8.00
2018-01-06T07:46:33.999Z,6.70
2018-01-06T07:49:02.265Z,8.23
2018-01-06T07:51:30.565Z,9.40
2018-01-06T07:53:58.831Z,7.90
2018-01-06T07:56:27.119Z,6.90
2018-01-06T07:58:55.401Z,6.57
2018-01-06T08:01:24.491Z,6.63
2018-01-06T08:03:52.772Z,7.70
2018-01-06T08:06:21.097Z,6.33
2018-01-06T08:08:49.754Z,6.60
2018-01-06T08:11:18.085Z,5.60
2018-01-06T08:13:46.527Z,6.40
2018-01-06T08:16:14.885Z,6.83
2018-01-06T08:18:43.293Z,6.97
2018-01-06T08:21:12.360Z,7.60
2018-01-06T08:23:40.693Z,6.30
2018-01-06T08:26:08.994Z,7.07
2018-01-06T08:28:38.049Z,7.60
2018-01-06T08:31:06.358Z,7.73
2018-01-06T08:33:35.519Z,10.40
2018-01-06T08:36:03.808Z,7.27
2018-01-06T08:38:32.282Z,7.10
2018-01-06T08:41:00.645Z,7.73
2018-01-06T08:43:29.704Z,9.40
2018-01-06T08:45:58.037Z,11.37
2018-01-06T08:48:26.373Z,17.50
2018-01-06T08:50:54.669Z,20.50
2018-01-06T08:53:23.889Z,19.70
2018-01-06T08:55:52.257Z,16.00
2018-01-06T08:58:20.542Z,12.57
2018-01-06T09:00:48.877Z,7.43
2018-01-06T09:03:17.152Z,7.70
2018-01-06T09:05:45.484Z,8.17
2018-01-06T09:08:13.847Z,8.10
2018-01-06T09:10:43.008Z,8.67
2018-01-06T09:13:11.336Z,12.07
2018-01-06T09:15:39.668Z,8.00
2018-01-06T09:18:07.976Z,9.57
2018-01-06T09:20:36.251Z,8.10
2018-01-06T09:23:04.586Z,7.40
2018-01-06T09:25:32.872Z,7.40
2018-01-06T09:28:01.131Z,8.10
2018-01-06T09:30:29.454Z,7.73
2018-01-06T09:32:57.758Z,7.93
2018-01-06T09:35:26.026Z,7.13
2018-01-06T09:37:54.341Z,7.10
2018-01-06T09:40:22.659Z,6.93
2018-01-06T09:42:50.994Z,7.17
2018-01-06T09:45:20.064Z,6.57
2018-01-06T09:47:49.086Z,7.27
2018-01-06T09:50:17.560Z,6.63
2018-01-06T09:52:45.918Z,7.30
2018-01-06T09:55:15.076Z,7.40
2018-01-06T09:57:43.321Z,7.47
2018-01-06T10:00:11.686Z,7.70
2018-01-06T10:02:39.967Z,8.20
2018-01-06T10:05:08.285Z,7.03
2018-01-06T10:07:36.612Z,7.30
2018-01-06T10:10:04.919Z,7.23
2018-01-06T10:12:33.293Z,7.40
2018-01-06T10:15:01.543Z,10.00
2018-01-06T10:17:29.847Z,8.37
2018-01-06T10:19:58.082Z,8.13
2018-01-06T10:22:27.139Z,7.77
2018-01-06T10:24:55.474Z,8.67
2018-01-06T10:27:23.759Z,10.53
2018-01-06T10:29:52.076Z,8.70
2018-01-06T10:32:20.367Z,10.57
2018-01-06T10:34:48.612Z,9.87
2018-01-06T10:37:16.943Z,11.27
2018-01-06T10:39:45.254Z,10.67
2018-01-06T10:42:13.609Z,9.97
2018-01-06T10:44:41.863Z,10.00
2018-01-06T10:47:10.147Z,10.93
2018-01-06T10:49:38.462Z,9.57
2018-01-06T10:52:06.734Z,7.47
2018-01-06T10:54:35.043Z,7.83
2018-01-06T10:57:03.509Z,7.20
2018-01-06T10:59:31.774Z,8.13
2018-01-06T11:02:06.753Z,11.77
2018-01-06T11:04:35.032Z,7.80
2018-01-06T11:07:03.370Z,12.00
2018-01-06T11:09:31.713Z,8.87
2018-01-06T11:12:00.088Z,9.70
2018-01-06T11:14:28.425Z,10.20
2018-01-06T11:16:56.925Z,9.23
2018-01-06T11:19:25.251Z,9.77
2018-01-06T11:21:54.432Z,9.03
2018-01-06T11:24:22.786Z,11.40
2018-01-06T11:26:51.118Z,10.83
2018-01-06T11:29:19.467Z,8.10
2018-01-06T11:31:48.062Z,10.00
2018-01-06T11:34:17.144Z,9.00
2018-01-06T11:36:45.414Z,10.13
2018-01-06T11:39:13.739Z,8.27
2018-01-06T11:41:42.763Z,7.60
2018-01-06T11:44:11.065Z,7.33
2018-01-06T11:46:40.296Z,8.63
2018-01-06T11:49:08.652Z,7.07
2018-01-06T11:51:36.906Z,8.77
2018-01-06T11:54:05.203Z,7.80
2018-01-06T11:56:34.730Z,8.43
2018-01-06T11:59:03.062Z,7.80
2018-01-06T12:01:31.959Z,7.13
2018-01-06T12:04:00.302Z,7.93
2018-01-06T12:06:28.742Z,7.57
2018-01-06T12:08:57.094Z,7.17
2018-01-06T12:11:25.344Z,6.77
2018-01-06T12:13:53.630Z,7.63
2018-01-06T12:16:21.908Z,7.50
2018-01-06T12:18:51.205Z,12.40
2018-01-06T12:21:19.485Z,8.80
2018-01-06T12:23:47.745Z,9.27
2018-01-06T12:26:16.049Z,8.77
2018-01-06T12:28:44.382Z,10.33
2018-01-06T12:31:12.678Z,11.37
2018-01-06T12:33:41.771Z,9.30
2018-01-06T12:36:11.738Z,9.57
2018-01-06T12:38:40.323Z,8.33
2018-01-06T12:41:08.578Z,9.30
2018-01-06T12:43:36.874Z,8.93
2018-01-06T12:46:06.081Z,9.57
2018-01-06T12:48:35.127Z,11.37
2018-01-06T12:51:03.445Z,8.60
2018-01-06T12:53:31.735Z,8.77
2018-01-06T12:56:00.138Z,10.00
2018-01-06T12:58:28.519Z,9.33
2018-01-06T13:00:56.773Z,7.70
2018-01-06T13:03:25.169Z,37.67
2018-01-06T13:05:53.466Z,17.87
2018-01-06T13:08:21.774Z,10.60
2018-01-06T13:10:50.086Z,8.90
2018-01-06T13:13:19.778Z,11.03
2018-01-06T13:15:48.103Z,9.90
2018-01-06T13:18:17.182Z,8.20
2018-01-06T13:20:45.488Z,10.97
2018-01-06T13:23:14.497Z,9.87
2018-01-06T13:25:42.788Z,11.00
2018-01-06T13:28:11.102Z,10.23
2018-01-06T13:30:39.405Z,11.73
2018-01-06T13:33:07.665Z,9.03
2018-01-06T13:35:36.006Z,10.47
2018-01-06T13:38:04.275Z,10.20
2018-01-06T13:40:32.594Z,10.10
2018-01-06T13:43:00.860Z,10.67
2018-01-06T13:45:29.115Z,11.37
2018-01-06T13:47:57.396Z,9.87
2018-01-06T13:50:25.686Z,10.50
2018-01-06T13:52:54.212Z,11.90
2018-01-06T13:55:22.523Z,13.27
2018-01-06T13:57:50.819Z,12.83
2018-01-06T14:00:19.111Z,12.63
2018-01-06T14:02:47.369Z,14.17
2018-01-06T14:05:15.630Z,14.17
2018-01-06T14:07:44.866Z,12.90
2018-01-06T14:10:23.157Z,11.60
2018-01-06T14:12:51.511Z,11.70
2018-01-06T14:15:20.618Z,12.53
2018-01-06T14:17:48.927Z,14.87
2018-01-06T14:20:17.299Z,12.43
2018-01-06T14:22:45.640Z,14.13
2018-01-06T14:25:16.515Z,15.07
2018-01-06T14:27:44.835Z,15.17
2018-01-06T14:30:14.058Z,14.77
2018-01-06T14:32:42.473Z,16.87
2018-01-06T14:35:11.836Z,16.97
2018-01-06T14:37:40.931Z,17.93
2018-01-06T14:40:09.233Z,18.43
2018-01-06T14:42:37.571Z,17.60
2018-01-06T14:45:06.038Z,18.33
2018-01-06T14:47:34.335Z,18.77
2018-01-06T14:50:02.621Z,19.10
2018-01-06T14:52:32.424Z,17.87
2018-01-06T14:55:00.757Z,19.17
2018-01-06T14:57:29.035Z,19.80
2018-01-06T14:59:57.345Z,18.67
2018-01-06T15:02:25.654Z,18.77
2018-01-06T15:06:25.465Z,22.40
2018-01-06T15:08:53.763Z,21.33
2018-01-06T15:11:26.674Z,18.03
2018-01-06T15:13:56.051Z,21.33
2018-01-06T15:16:25.324Z,19.10
2018-01-06T15:18:54.106Z,21.90
2018-01-06T15:21:22.395Z,19.50
2018-01-06T15:23:50.658Z,25.63
2018-01-06T15:26:19.142Z,22.00
2018-01-06T15:28:47.456Z,18.37
2018-01-06T15:31:15.725Z,21.17
2018-01-06T15:33:44.035Z,20.57
2018-01-06T15:36:13.524Z,21.90
2018-01-06T15:38:42.570Z,21.17
2018-01-06T15:41:10.900Z,20.73
2018-01-06T15:43:40.013Z,24.20
2018-01-06T15:46:09.099Z,21.30
2018-01-06T15:48:37.440Z,21.83
2018-01-06T15:51:05.722Z,20.60
2018-01-06T15:53:34.899Z,22.30
2018-01-06T15:56:03.323Z,23.60
2018-01-06T15:58:33.208Z,23.23
2018-01-06T16:01:01.591Z,24.53
2018-01-06T16:03:30.666Z,29.57
2018-01-06T16:05:58.985Z,31.70
2018-01-06T16:08:28.106Z,29.13
2018-01-06T16:10:56.399Z,28.60
2018-01-06T16:13:24.733Z,28.60
2018-01-06T16:15:53.108Z,26.93
2018-01-06T16:18:21.486Z,27.43
2018-01-06T16:20:50.868Z,27.87
2018-01-06T16:23:19.188Z,27.70
2018-01-06T16:25:48.292Z,37.60
2018-01-06T16:28:16.633Z,35.27
2018-01-06T16:30:45.665Z,34.60
2018-01-06T16:33:14.719Z,32.57
2018-01-06T16:35:42.985Z,30.10
2018-01-06T16:38:11.386Z,30.67
2018-01-06T16:40:39.683Z,26.80
2018-01-06T16:43:07.997Z,26.63
2018-01-06T16:45:36.304Z,27.47
2018-01-06T16:48:05.064Z,28.40
2018-01-06T16:50:33.451Z,31.80
2018-01-06T16:53:02.504Z,31.87
2018-01-06T16:55:30.760Z,32.20
2018-01-06T16:57:59.035Z,35.47
2018-01-06T17:00:27.364Z,31.27
2018-01-06T17:02:55.760Z,29.40
2018-01-06T17:05:24.053Z,29.40
2018-01-06T17:07:52.352Z,29.07
2018-01-06T17:10:20.652Z,28.03
2018-01-06T17:12:49.716Z,32.30
2018-01-06T17:15:17.992Z,28.53
2018-01-06T17:17:46.266Z,28.23
2018-01-06T17:20:14.603Z,28.57
2018-01-06T17:22:44.090Z,29.50
2018-01-06T17:25:12.356Z,31.33
2018-01-06T17:27:40.631Z,31.77
2018-01-06T17:30:08.912Z,27.80
2018-01-06T17:32:37.189Z,22.97
2018-01-06T17:35:06.973Z,28.57
2018-01-06T17:37:35.834Z,25.37
2018-01-06T17:40:04.170Z,24.77
2018-01-06T17:42:32.462Z,22.80
2018-01-06T17:45:01.490Z,28.63
2018-01-06T17:47:29.755Z,28.17
2018-01-06T17:49:58.072Z,26.30
2018-01-06T17:52:26.470Z,27.73
2018-01-06T17:54:54.724Z,15.87
2018-01-06T17:57:23.000Z,23.60
2018-01-06T17:59:51.296Z,25.37
2018-01-06T18:02:19.628Z,26.23
2018-01-06T18:04:48.671Z,18.03
2018-01-06T18:07:16.967Z,22.70
2018-01-06T18:09:45.252Z,21.87
2018-01-06T18:12:13.615Z,22.50
2018-01-06T18:14:41.923Z,22.97
2018-01-06T18:17:10.239Z,26.90
2018-01-06T18:19:38.490Z,24.10
2018-01-06T18:22:06.849Z,18.70
2018-01-06T18:24:35.993Z,17.30
2018-01-06T18:27:04.323Z,17.93
2018-01-06T18:29:32.671Z,16.67
2018-01-06T18:32:01.005Z,17.07
2018-01-06T18:34:29.386Z,19.47
2018-01-06T18:36:58.486Z,18.43
2018-01-06T18:39:27.765Z,20.70
2018-01-06T18:41:56.884Z,23.47
2018-01-06T18:44:25.976Z,20.20
2018-01-06T18:46:54.372Z,21.37
2018-01-06T18:49:23.403Z,23.80
2018-01-06T18:51:51.940Z,20.43
2018-01-06T18:54:20.410Z,18.73
2018-01-06T18:56:49.556Z,18.23
2018-01-06T18:59:18.727Z,22.90
2018-01-06T19:01:47.076Z,29.93
2018-01-06T19:04:15.519Z,23.73
2018-01-06T19:06:43.839Z,23.80
2018-01-06T19:09:12.708Z,26.53
2018-01-06T19:11:41.005Z,21.30
2018-01-06T19:14:09.319Z,24.13
2018-01-06T19:16:38.445Z,26.17
2018-01-06T19:19:07.560Z,26.33
2018-01-06T19:21:35.903Z,28.73
2018-01-06T19:24:04.195Z,26.97
2018-01-06T19:26:32.584Z,26.87
2018-01-06T19:29:00.935Z,22.00
2018-01-06T19:31:29.240Z,25.53
2018-01-06T19:33:57.635Z,21.83
2018-01-06T19:36:25.973Z,18.37
2018-01-06T19:38:54.302Z,17.80
2018-01-06T19:41:22.603Z,20.27
2018-01-06T19:43:50.975Z,20.50
2018-01-06T19:46:19.333Z,18.23
2018-01-06T19:48:47.745Z,17.60
2018-01-06T19:51:16.959Z,18.33
2018-01-06T19:53:46.041Z,16.60
2018-01-06T19:56:14.449Z,16.40
2018-01-06T19:58:42.780Z,17.60
2018-01-06T20:01:11.155Z,16.50
2018-01-06T20:03:40.272Z,15.73
2018-01-06T20:06:08.697Z,15.60
2018-01-06T20:08:37.514Z,16.83
2018-01-06T20:11:05.838Z,15.40
2018-01-06T20:13:34.208Z,16.60
2018-01-06T20:16:03.296Z,16.40
2018-01-06T20:18:32.441Z,15.33
2018-01-06T20:21:01.005Z,19.97
2018-01-06T20:23:30.205Z,18.63
2018-01-06T20:25:58.550Z,18.10
2018-01-06T20:28:26.959Z,16.20
2018-01-06T20:30:55.350Z,11.90
2018-01-06T20:33:23.733Z,13.40
2018-01-06T20:35:52.266Z,13.13
2018-01-06T20:38:21.283Z,12.97
2018-01-06T20:40:50.679Z,17.30
2018-01-06T20:43:20.134Z,15.50
2018-01-06T20:45:49.876Z,13.50
2018-01-06T20:48:18.573Z,14.87
2018-01-06T20:50:46.872Z,16.90
2018-01-06T20:53:16.015Z,16.70
2018-01-06T20:55:45.711Z,16.17
2018-01-06T20:58:14.085Z,16.40
2018-01-06T21:00:42.519Z,15.90
2018-01-06T21:03:10.822Z,20.50
2018-01-06T21:05:39.211Z,20.50
2018-01-06T21:08:07.643Z,19.13
2018-01-06T21:10:36.076Z,21.43
2018-01-06T21:13:04.484Z,23.23
2018-01-06T21:15:32.806Z,24.23
2018-01-06T21:18:02.256Z,25.90
2018-01-06T21:20:31.106Z,25.80
2018-01-06T21:22:59.414Z,25.97
2018-01-06T21:25:27.986Z,27.23
2018-01-06T21:27:57.031Z,27.33
2018-01-06T21:30:25.457Z,29.37
2018-01-06T21:32:54.522Z,29.10
2018-01-06T21:35:22.865Z,27.67
2018-01-06T21:37:51.382Z,28.80
2018-01-06T21:40:19.685Z,29.73
2018-01-06T21:42:47.975Z,30.10
2018-01-06T21:45:17.255Z,31.30
2018-01-06T21:47:45.597Z,32.20
2018-01-06T21:50:13.847Z,31.83
2018-01-06T21:52:42.214Z,32.30
2018-01-06T21:55:10.524Z,32.77
2018-01-06T21:57:38.834Z,30.17
2018-01-06T22:00:07.187Z,33.30
2018-01-06T22:02:35.601Z,28.43
2018-01-06T22:05:04.781Z,35.80
2018-01-06T22:07:33.090Z,33.87
2018-01-06T22:10:01.482Z,38.63
2018-01-06T22:12:29.777Z,37.97
2018-01-06T22:14:58.143Z,37.27
2018-01-06T22:17:26.504Z,40.73
2018-01-06T22:19:54.785Z,37.40
2018-01-06T22:22:23.897Z,35.00
2018-01-06T22:24:53.001Z,36.83
2018-01-06T22:27:22.009Z,36.10
2018-01-06T22:29:50.446Z,36.60
2018-01-06T22:32:19.567Z,39.70
2018-01-06T22:34:47.905Z,37.10
2018-01-06T22:37:16.853Z,38.47
2018-01-06T22:39:46.044Z,34.73
2018-01-06T22:42:14.367Z,36.23
2018-01-06T22:44:42.690Z,35.03
2018-01-06T22:47:23.959Z,31.10
2018-01-06T22:49:53.012Z,34.80
2018-01-06T22:52:21.291Z,35.43
2018-01-06T22:54:49.635Z,33.67
2018-01-06T22:57:17.948Z,36.03
2018-01-06T22:59:46.256Z,33.30
2018-01-06T23:02:15.328Z,34.97
2018-01-06T23:04:43.786Z,35.83
2018-01-06T23:07:12.984Z,33.70
2018-01-06T23:09:41.907Z,34.53
2018-01-06T23:12:10.243Z,35.50
2018-01-06T23:14:38.527Z,36.80
2018-01-06T23:17:07.622Z,35.47
2018-01-06T23:19:35.925Z,39.13
2018-01-06T23:22:04.220Z,40.23
2018-01-06T23:24:32.506Z,38.30
2018-01-06T23:27:01.992Z,37.57
2018-01-06T23:29:30.368Z,38.00
2018-01-06T23:31:59.657Z,36.83
2018-01-06T23:34:27.940Z,37.77
2018-01-06T23:36:56.276Z,36.93
2018-01-06T23:39:25.489Z,37.40
2018-01-06T23:41:53.796Z,37.50
2018-01-06T23:44:22.957Z,34.10
2018-01-06T23:46:51.572Z,34.50
2018-01-06T23:49:20.771Z,35.80
2018-01-06T23:51:50.209Z,35.77
2018-01-06T23:54:19.884Z,32.87
2018-01-06T23:56:49.103Z,34.10
2018-01-06T23:59:17.494Z,32.00
